Portada
METAR-TAF:

METAR-TAF

Aeroports :

Souillac

Briva la Galharda, França

latitud: 45-02-28N, longitud: 001-28-59E, altitud: 311 m

Observació

L'informe es va fer fa 35 minuts, a les 22:30 UTC
Vent calma
Temperatura -1°C
Humitat 100%
Pressió 1014 hPa
Visibilitat 10 km o més
sense núvols per sota de 1500 mi sense presència de cumulonimbus.

METAR: LFSL 192230Z AUTO 00000KT CAVOK M01/M01 Q1014

Hora: 00:05 (23:05 UTC)

Pronòstic

L'informe es va fer fa 6 hores i 5 minuts, a les 17:00 UTC
Pronòstic vàlid del 19 a les 18 UTC al 20 a les 03 UTC
Vent 3 kt amb direcció variable
Visibilitat 10 km o més
Cel cobert a una alçada de 3000 ft
Evolucionant progressivament
l' 19 a les 19 UTC al 19 a les 21 UTC
Visibilitat: 2000 m
boirina

TAF: LFSL 191700Z 1918/2003 VRB03KT 9999 OVC030 BECMG 1919/1921 2000 BR NSC

Observacions i pronòstics meteorològics de més de 4000 aeroports (METAR i TAF).

Les estacions disponibles són els punts grocs i vermells al mapa.

Posi el ratolí al punt desitjat per veure el nom de l'estació.

Feu clic per veure les observacions i els pronòstics meteorològics.

Per canviar el mapa: feu clic els botons verds amb una creu de color negre per apropar; al botó verd amb un guió per allunyar la imatge; o en les fletxes verdes per a mapes adjacents.


METAR-TAF: